Cape Girardeau Regional Airport Cape Girardeau US
ICAO: KCGI
IATA: CGI
Category: Medium
Scheduled Services: Yes

Elevation: 342 ft
TransAlt. 18000 ft.

Airport Communications:
ASOS:120.55
MEMPHIS CNTR:133.65
CTAF:119
GND:121.6
ST LOUIS RDO:122.4
TWR:119
UNICOM:122.95

KCGI Zoom In..

Runways:

(A) RW 02 length 3997 ft width 100 ft
---- / hdg 23

(B) RW 10 length 6500 ft width 150 ft
ILS 109.50 / hdg 108

(C) RW 20 length 3997 ft width 100 ft
---- / hdg 203

(D) RW 28 length 6500 ft width 150 ft
---- / hdg 288

Location; KCGI
Day. 23 / Time. 21.53 Zulu
* Altimeter: 30.15
* Temperature: 05° c. 41°f.
* Wind from: 320° Speed 08 kn.
Dewpoint: -02° c.
Visibility: 10 Statute Miles.
Clouds: Overcast 3700 ft.

KCGI 232153Z 32008KT 10SM OVC037 05/M02 A3015 RMK AO2 SLP212 T00501022


Wind From 320°
Speed 08 kn.

YouTube Music Video
 
jpsmedia.com for Web Design  worldairports.se 2018   terms of use